sensor_id;sensor_type;location;lat;lon;timestamp;P1;durP1;ratioP1;P2;durP2;ratioP2
4533;SDS011;2279;51.448;7.306;2023-01-10T00:00:31;22.87;;;9.23;;
4533;SDS011;2279;51.448;7.306;2023-01-10T00:03:01;17.60;;;9.10;;
4533;SDS011;2279;51.448;7.306;2023-01-10T00:05:27;12.10;;;8.63;;
4533;SDS011;2279;51.448;7.306;2023-01-10T00:07:53;18.93;;;8.77;;
4533;SDS011;2279;51.448;7.306;2023-01-10T00:10:19;20.75;;;9.77;;
4533;SDS011;2279;51.448;7.306;2023-01-10T00:12:45;18.73;;;9.87;;
4533;SDS011;2279;51.448;7.306;2023-01-10T00:15:33;18.48;;;9.73;;
4533;SDS011;2279;51.448;7.306;2023-01-10T00:18:00;16.13;;;9.25;;
4533;SDS011;2279;51.448;7.306;2023-01-10T00:20:26;18.30;;;8.50;;
4533;SDS011;2279;51.448;7.306;2023-01-10T00:22:52;24.35;;;11.18;;
4533;SDS011;2279;51.448;7.306;2023-01-10T00:25:18;18.17;;;8.77;;
4533;SDS011;2279;51.448;7.306;2023-01-10T00:27:45;17.60;;;8.23;;
4533;SDS011;2279;51.448;7.306;2023-01-10T00:30:13;12.73;;;8.77;;
4533;SDS011;2279;51.448;7.306;2023-01-10T00:32:43;15.33;;;8.47;;
4533;SDS011;2279;51.448;7.306;2023-01-10T00:35:09;27.27;;;9.02;;
4533;SDS011;2279;51.448;7.306;2023-01-10T00:37:36;16.35;;;8.00;;
4533;SDS011;2279;51.448;7.306;2023-01-10T00:40:02;13.82;;;7.95;;
4533;SDS011;2279;51.448;7.306;2023-01-10T00:42:28;17.67;;;7.60;;
4533;SDS011;2279;51.448;7.306;2023-01-10T00:45:13;23.33;;;7.35;;
4533;SDS011;2279;51.448;7.306;2023-01-10T00:47:40;16.25;;;7.25;;
4533;SDS011;2279;51.448;7.306;2023-01-10T00:50:06;21.47;;;7.10;;
4533;SDS011;2279;51.448;7.306;2023-01-10T00:52:32;19.65;;;7.93;;
4533;SDS011;2279;51.448;7.306;2023-01-10T00:54:58;13.00;;;8.07;;
4533;SDS011;2279;51.448;7.306;2023-01-10T00:57:24;18.67;;;8.10;;
4533;SDS011;2279;51.448;7.306;2023-01-10T00:59:50;17.50;;;7.57;;
4533;SDS011;2279;51.448;7.306;2023-01-10T01:02:16;19.60;;;7.20;;
4533;SDS011;2279;51.448;7.306;2023-01-10T01:04:42;12.53;;;6.80;;
4533;SDS011;2279;51.448;7.306;2023-01-10T01:07:08;10.10;;;6.10;;
4533;SDS011;2279;51.448;7.306;2023-01-10T01:09:34;16.50;;;6.63;;
4533;SDS011;2279;51.448;7.306;2023-01-10T01:12:20;12.23;;;5.60;;
4533;SDS011;2279;51.448;7.306;2023-01-10T01:14:46;10.67;;;6.03;;
4533;SDS011;2279;51.448;7.306;2023-01-10T01:17:12;26.17;;;6.40;;
4533;SDS011;2279;51.448;7.306;2023-01-10T01:19:38;11.40;;;6.40;;
4533;SDS011;2279;51.448;7.306;2023-01-10T01:22:04;16.93;;;5.97;;
4533;SDS011;2279;51.448;7.306;2023-01-10T01:24:30;10.60;;;5.63;;
4533;SDS011;2279;51.448;7.306;2023-01-10T01:26:56;13.97;;;6.03;;
4533;SDS011;2279;51.448;7.306;2023-01-10T01:29:21;11.50;;;5.70;;
4533;SDS011;2279;51.448;7.306;2023-01-10T01:31:48;14.38;;;6.90;;
4533;SDS011;2279;51.448;7.306;2023-01-10T01:34:14;17.13;;;5.80;;
4533;SDS011;2279;51.448;7.306;2023-01-10T01:36:40;13.23;;;5.22;;
4533;SDS011;2279;51.448;7.306;2023-01-10T01:39:06;7.30;;;5.70;;
4533;SDS011;2279;51.448;7.306;2023-01-10T01:41:32;9.93;;;4.90;;
4533;SDS011;2279;51.448;7.306;2023-01-10T01:44:17;9.30;;;5.37;;
4533;SDS011;2279;51.448;7.306;2023-01-10T01:46:44;26.27;;;6.17;;
4533;SDS011;2279;51.448;7.306;2023-01-10T01:49:15;18.10;;;5.07;;
4533;SDS011;2279;51.448;7.306;2023-01-10T01:51:43;10.85;;;4.75;;
4533;SDS011;2279;51.448;7.306;2023-01-10T01:54:11;14.95;;;4.95;;
4533;SDS011;2279;51.448;7.306;2023-01-10T01:56:39;7.10;;;4.57;;
4533;SDS011;2279;51.448;7.306;2023-01-10T01:59:14;7.00;;;4.87;;
4533;SDS011;2279;51.448;7.306;2023-01-10T02:01:43;21.97;;;5.03;;
4533;SDS011;2279;51.448;7.306;2023-01-10T02:04:30;11.83;;;5.30;;
4533;SDS011;2279;51.448;7.306;2023-01-10T02:06:56;9.52;;;4.82;;
4533;SDS011;2279;51.448;7.306;2023-01-10T02:11:49;14.20;;;4.97;;
4533;SDS011;2279;51.448;7.306;2023-01-10T02:14:15;7.97;;;4.35;;
4533;SDS011;2279;51.448;7.306;2023-01-10T02:16:41;8.02;;;4.00;;
4533;SDS011;2279;51.448;7.306;2023-01-10T02:19:11;11.67;;;3.90;;
4533;SDS011;2279;51.448;7.306;2023-01-10T02:21:45;6.50;;;4.88;;
4533;SDS011;2279;51.448;7.306;2023-01-10T02:37:07;7.70;;;4.00;;
4533;SDS011;2279;51.448;7.306;2023-01-10T02:42:08;5.45;;;3.45;;
4533;SDS011;2279;51.448;7.306;2023-01-10T02:47:03;11.77;;;4.67;;
4533;SDS011;2279;51.448;7.306;2023-01-10T02:49:29;3.13;;;2.83;;
4533;SDS011;2279;51.448;7.306;2023-01-10T02:51:55;8.63;;;3.58;;
4533;SDS011;2279;51.448;7.306;2023-01-10T02:54:23;8.40;;;4.13;;
4533;SDS011;2279;51.448;7.306;2023-01-10T02:57:06;11.03;;;3.17;;
4533;SDS011;2279;51.448;7.306;2023-01-10T02:59:43;7.43;;;3.00;;
4533;SDS011;2279;51.448;7.306;2023-01-10T03:02:21;12.57;;;3.30;;
4533;SDS011;2279;51.448;7.306;2023-01-10T03:04:53;5.45;;;3.42;;
4533;SDS011;2279;51.448;7.306;2023-01-10T03:07:24;11.18;;;3.40;;
4533;SDS011;2279;51.448;7.306;2023-01-10T03:14:51;14.37;;;4.03;;
4533;SDS011;2279;51.448;7.306;2023-01-10T03:17:18;17.08;;;3.83;;
4533;SDS011;2279;51.448;7.306;2023-01-10T03:19:46;8.50;;;3.45;;
4533;SDS011;2279;51.448;7.306;2023-01-10T03:22:13;10.57;;;3.85;;
4533;SDS011;2279;51.448;7.306;2023-01-10T03:24:40;12.10;;;3.05;;
4533;SDS011;2279;51.448;7.306;2023-01-10T03:29:48;8.25;;;2.97;;
4533;SDS011;2279;51.448;7.306;2023-01-10T03:32:16;15.80;;;3.65;;
4533;SDS011;2279;51.448;7.306;2023-01-10T03:34:44;12.18;;;3.20;;
4533;SDS011;2279;51.448;7.306;2023-01-10T03:42:37;8.23;;;3.40;;
4533;SDS011;2279;51.448;7.306;2023-01-10T03:45:22;14.73;;;4.03;;
4533;SDS011;2279;51.448;7.306;2023-01-10T03:47:49;5.70;;;3.83;;
4533;SDS011;2279;51.448;7.306;2023-01-10T03:50:19;14.95;;;4.50;;
4533;SDS011;2279;51.448;7.306;2023-01-10T03:52:45;17.23;;;4.40;;
4533;SDS011;2279;51.448;7.306;2023-01-10T03:55:12;11.20;;;4.05;;
4533;SDS011;2279;51.448;7.306;2023-01-10T03:57:41;10.00;;;3.95;;
4533;SDS011;2279;51.448;7.306;2023-01-10T04:00:09;10.70;;;4.35;;
4533;SDS011;2279;51.448;7.306;2023-01-10T04:02:36;11.65;;;4.15;;
4533;SDS011;2279;51.448;7.306;2023-01-10T04:05:02;6.60;;;4.30;;
4533;SDS011;2279;51.448;7.306;2023-01-10T04:07:28;8.48;;;3.92;;
4533;SDS011;2279;51.448;7.306;2023-01-10T04:09:54;9.23;;;4.23;;
4533;SDS011;2279;51.448;7.306;2023-01-10T04:12:20;6.50;;;3.37;;
4533;SDS011;2279;51.448;7.306;2023-01-10T04:14:46;10.50;;;4.60;;
4533;SDS011;2279;51.448;7.306;2023-01-10T04:17:13;13.30;;;5.00;;
4533;SDS011;2279;51.448;7.306;2023-01-10T04:19:39;14.63;;;4.30;;
4533;SDS011;2279;51.448;7.306;2023-01-10T04:22:05;10.40;;;4.40;;
4533;SDS011;2279;51.448;7.306;2023-01-10T04:24:31;6.47;;;3.90;;
4533;SDS011;2279;51.448;7.306;2023-01-10T04:26:58;14.05;;;5.18;;
4533;SDS011;2279;51.448;7.306;2023-01-10T04:29:24;13.07;;;3.60;;
4533;SDS011;2279;51.448;7.306;2023-01-10T04:31:50;13.13;;;4.60;;
4533;SDS011;2279;51.448;7.306;2023-01-10T04:34:16;7.70;;;3.30;;
4533;SDS011;2279;51.448;7.306;2023-01-10T04:36:44;11.30;;;3.90;;
4533;SDS011;2279;51.448;7.306;2023-01-10T04:39:10;13.13;;;4.75;;
4533;SDS011;2279;51.448;7.306;2023-01-10T04:41:36;6.27;;;3.63;;
4533;SDS011;2279;51.448;7.306;2023-01-10T04:44:02;11.50;;;4.07;;
4533;SDS011;2279;51.448;7.306;2023-01-10T04:46:28;5.93;;;3.78;;
4533;SDS011;2279;51.448;7.306;2023-01-10T04:48:54;19.33;;;5.43;;
4533;SDS011;2279;51.448;7.306;2023-01-10T04:51:22;5.82;;;3.10;;
4533;SDS011;2279;51.448;7.306;2023-01-10T04:53:48;10.20;;;3.90;;
4533;SDS011;2279;51.448;7.306;2023-01-10T04:56:15;15.73;;;3.63;;
4533;SDS011;2279;51.448;7.306;2023-01-10T04:58:42;13.13;;;5.32;;
4533;SDS011;2279;51.448;7.306;2023-01-10T05:01:08;10.53;;;4.43;;
4533;SDS011;2279;51.448;7.306;2023-01-10T05:03:34;3.90;;;2.60;;
4533;SDS011;2279;51.448;7.306;2023-01-10T05:06:00;7.60;;;2.77;;
4533;SDS011;2279;51.448;7.306;2023-01-10T05:08:27;6.87;;;3.40;;
4533;SDS011;2279;51.448;7.306;2023-01-10T05:10:53;12.25;;;3.92;;
4533;SDS011;2279;51.448;7.306;2023-01-10T05:13:19;19.30;;;5.60;;
4533;SDS011;2279;51.448;7.306;2023-01-10T05:15:45;10.53;;;3.20;;
4533;SDS011;2279;51.448;7.306;2023-01-10T05:18:11;8.87;;;3.80;;
4533;SDS011;2279;51.448;7.306;2023-01-10T05:20:37;9.83;;;3.17;;
4533;SDS011;2279;51.448;7.306;2023-01-10T05:23:02;14.27;;;3.73;;
4533;SDS011;2279;51.448;7.306;2023-01-10T05:25:28;10.57;;;3.40;;
4533;SDS011;2279;51.448;7.306;2023-01-10T05:27:54;12.67;;;4.17;;
4533;SDS011;2279;51.448;7.306;2023-01-10T05:30:20;9.13;;;3.30;;
4533;SDS011;2279;51.448;7.306;2023-01-10T05:32:46;10.37;;;3.60;;
4533;SDS011;2279;51.448;7.306;2023-01-10T05:35:12;11.93;;;3.90;;
4533;SDS011;2279;51.448;7.306;2023-01-10T05:37:38;10.73;;;3.27;;
4533;SDS011;2279;51.448;7.306;2023-01-10T05:40:04;8.15;;;3.90;;
4533;SDS011;2279;51.448;7.306;2023-01-10T05:42:30;11.73;;;3.38;;
4533;SDS011;2279;51.448;7.306;2023-01-10T05:44:56;11.90;;;3.40;;
4533;SDS011;2279;51.448;7.306;2023-01-10T05:47:22;8.40;;;3.53;;
4533;SDS011;2279;51.448;7.306;2023-01-10T05:49:49;9.90;;;3.92;;
4533;SDS011;2279;51.448;7.306;2023-01-10T05:52:15;12.35;;;3.63;;
4533;SDS011;2279;51.448;7.306;2023-01-10T05:54:41;10.53;;;3.90;;
4533;SDS011;2279;51.448;7.306;2023-01-10T05:57:07;20.10;;;3.83;;
4533;SDS011;2279;51.448;7.306;2023-01-10T05:59:33;6.80;;;3.60;;
4533;SDS011;2279;51.448;7.306;2023-01-10T06:01:59;16.48;;;3.22;;
4533;SDS011;2279;51.448;7.306;2023-01-10T06:04:25;11.33;;;3.30;;
4533;SDS011;2279;51.448;7.306;2023-01-10T06:06:51;14.70;;;3.40;;
4533;SDS011;2279;51.448;7.306;2023-01-10T06:09:17;7.20;;;3.30;;
4533;SDS011;2279;51.448;7.306;2023-01-10T06:11:43;14.63;;;3.00;;
4533;SDS011;2279;51.448;7.306;2023-01-10T06:14:09;16.88;;;3.95;;
4533;SDS011;2279;51.448;7.306;2023-01-10T06:16:35;11.63;;;4.53;;
4533;SDS011;2279;51.448;7.306;2023-01-10T06:19:01;13.63;;;3.60;;
4533;SDS011;2279;51.448;7.306;2023-01-10T06:21:27;11.33;;;3.37;;
4533;SDS011;2279;51.448;7.306;2023-01-10T06:23:53;11.10;;;4.00;;
4533;SDS011;2279;51.448;7.306;2023-01-10T06:26:19;14.53;;;4.17;;
4533;SDS011;2279;51.448;7.306;2023-01-10T06:28:45;7.07;;;3.33;;
4533;SDS011;2279;51.448;7.306;2023-01-10T06:31:11;18.10;;;3.80;;
4533;SDS011;2279;51.448;7.306;2023-01-10T06:33:38;13.25;;;4.90;;
4533;SDS011;2279;51.448;7.306;2023-01-10T06:36:05;14.57;;;4.10;;
4533;SDS011;2279;51.448;7.306;2023-01-10T06:38:31;12.23;;;4.63;;
4533;SDS011;2279;51.448;7.306;2023-01-10T06:40:58;22.90;;;5.72;;
4533;SDS011;2279;51.448;7.306;2023-01-10T06:43:36;11.60;;;3.80;;
4533;SDS011;2279;51.448;7.306;2023-01-10T06:46:02;11.37;;;4.23;;
4533;SDS011;2279;51.448;7.306;2023-01-10T06:48:28;15.37;;;4.60;;
4533;SDS011;2279;51.448;7.306;2023-01-10T06:50:54;16.63;;;4.93;;
4533;SDS011;2279;51.448;7.306;2023-01-10T06:53:20;22.43;;;4.80;;
4533;SDS011;2279;51.448;7.306;2023-01-10T06:55:46;16.30;;;4.40;;
4533;SDS011;2279;51.448;7.306;2023-01-10T06:58:12;11.57;;;4.83;;
4533;SDS011;2279;51.448;7.306;2023-01-10T07:00:43;16.05;;;3.78;;
4533;SDS011;2279;51.448;7.306;2023-01-10T07:03:09;11.80;;;4.27;;
4533;SDS011;2279;51.448;7.306;2023-01-10T07:05:35;17.67;;;4.40;;
4533;SDS011;2279;51.448;7.306;2023-01-10T07:08:01;12.60;;;4.07;;
4533;SDS011;2279;51.448;7.306;2023-01-10T07:10:27;17.93;;;5.37;;
4533;SDS011;2279;51.448;7.306;2023-01-10T07:12:53;25.15;;;6.75;;
4533;SDS011;2279;51.448;7.306;2023-01-10T07:15:20;16.40;;;4.18;;
4533;SDS011;2279;51.448;7.306;2023-01-10T07:17:46;14.53;;;4.33;;
4533;SDS011;2279;51.448;7.306;2023-01-10T07:20:11;18.77;;;4.80;;
4533;SDS011;2279;51.448;7.306;2023-01-10T07:22:38;17.05;;;4.82;;
4533;SDS011;2279;51.448;7.306;2023-01-10T07:25:04;13.13;;;4.20;;
4533;SDS011;2279;51.448;7.306;2023-01-10T07:27:30;20.83;;;4.68;;
4533;SDS011;2279;51.448;7.306;2023-01-10T07:29:56;12.85;;;4.32;;
4533;SDS011;2279;51.448;7.306;2023-01-10T07:32:23;14.82;;;4.82;;
4533;SDS011;2279;51.448;7.306;2023-01-10T07:34:49;13.15;;;4.95;;
4533;SDS011;2279;51.448;7.306;2023-01-10T07:37:15;16.90;;;5.70;;
4533;SDS011;2279;51.448;7.306;2023-01-10T07:39:41;25.80;;;5.60;;
4533;SDS011;2279;51.448;7.306;2023-01-10T07:42:09;18.00;;;5.47;;
4533;SDS011;2279;51.448;7.306;2023-01-10T07:44:35;10.30;;;5.28;;
4533;SDS011;2279;51.448;7.306;2023-01-10T07:47:01;16.83;;;5.20;;
4533;SDS011;2279;51.448;7.306;2023-01-10T07:49:27;13.03;;;5.80;;
4533;SDS011;2279;51.448;7.306;2023-01-10T07:51:53;14.37;;;4.53;;
4533;SDS011;2279;51.448;7.306;2023-01-10T07:54:19;18.43;;;4.23;;
4533;SDS011;2279;51.448;7.306;2023-01-10T07:56:45;15.07;;;5.40;;
4533;SDS011;2279;51.448;7.306;2023-01-10T07:59:12;13.73;;;5.10;;
4533;SDS011;2279;51.448;7.306;2023-01-10T08:01:38;8.20;;;4.57;;
4533;SDS011;2279;51.448;7.306;2023-01-10T08:04:04;13.98;;;4.93;;
4533;SDS011;2279;51.448;7.306;2023-01-10T08:06:30;16.88;;;5.43;;
4533;SDS011;2279;51.448;7.306;2023-01-10T08:08:56;13.83;;;5.50;;
4533;SDS011;2279;51.448;7.306;2023-01-10T08:11:22;9.30;;;6.00;;
4533;SDS011;2279;51.448;7.306;2023-01-10T08:13:48;20.93;;;5.23;;
4533;SDS011;2279;51.448;7.306;2023-01-10T08:16:14;16.53;;;4.40;;
4533;SDS011;2279;51.448;7.306;2023-01-10T08:18:40;8.17;;;4.33;;
4533;SDS011;2279;51.448;7.306;2023-01-10T08:21:07;15.00;;;4.68;;
4533;SDS011;2279;51.448;7.306;2023-01-10T08:23:33;26.30;;;6.05;;
4533;SDS011;2279;51.448;7.306;2023-01-10T08:25:59;10.25;;;5.05;;
4533;SDS011;2279;51.448;7.306;2023-01-10T08:28:26;17.20;;;5.38;;
4533;SDS011;2279;51.448;7.306;2023-01-10T08:30:52;16.20;;;6.32;;
4533;SDS011;2279;51.448;7.306;2023-01-10T08:33:20;23.93;;;6.97;;
4533;SDS011;2279;51.448;7.306;2023-01-10T08:35:47;21.10;;;5.65;;
4533;SDS011;2279;51.448;7.306;2023-01-10T08:38:13;26.37;;;5.80;;
4533;SDS011;2279;51.448;7.306;2023-01-10T08:40:39;19.60;;;6.40;;
4533;SDS011;2279;51.448;7.306;2023-01-10T08:43:06;25.10;;;6.07;;
4533;SDS011;2279;51.448;7.306;2023-01-10T08:45:33;13.85;;;5.63;;
4533;SDS011;2279;51.448;7.306;2023-01-10T08:47:59;14.85;;;4.97;;
4533;SDS011;2279;51.448;7.306;2023-01-10T08:50:25;20.43;;;5.93;;
4533;SDS011;2279;51.448;7.306;2023-01-10T08:52:51;16.63;;;5.38;;
4533;SDS011;2279;51.448;7.306;2023-01-10T08:55:18;21.87;;;5.17;;
4533;SDS011;2279;51.448;7.306;2023-01-10T08:57:44;13.13;;;5.78;;
4533;SDS011;2279;51.448;7.306;2023-01-10T09:00:10;24.33;;;5.90;;
4533;SDS011;2279;51.448;7.306;2023-01-10T09:02:38;20.30;;;5.47;;
4533;SDS011;2279;51.448;7.306;2023-01-10T09:05:04;10.53;;;5.07;;
4533;SDS011;2279;51.448;7.306;2023-01-10T09:07:30;25.65;;;5.80;;
4533;SDS011;2279;51.448;7.306;2023-01-10T09:09:56;19.43;;;4.67;;
4533;SDS011;2279;51.448;7.306;2023-01-10T09:12:22;14.50;;;4.20;;
4533;SDS011;2279;51.448;7.306;2023-01-10T09:15:06;14.30;;;4.70;;
4533;SDS011;2279;51.448;7.306;2023-01-10T09:17:33;15.07;;;4.60;;
4533;SDS011;2279;51.448;7.306;2023-01-10T09:19:59;18.23;;;5.00;;
4533;SDS011;2279;51.448;7.306;2023-01-10T09:22:25;12.20;;;4.33;;
4533;SDS011;2279;51.448;7.306;2023-01-10T09:24:51;8.80;;;4.43;;
4533;SDS011;2279;51.448;7.306;2023-01-10T09:27:17;20.77;;;5.00;;
4533;SDS011;2279;51.448;7.306;2023-01-10T09:29:43;15.47;;;4.97;;
4533;SDS011;2279;51.448;7.306;2023-01-10T09:32:09;16.27;;;4.80;;
4533;SDS011;2279;51.448;7.306;2023-01-10T09:34:35;14.27;;;4.68;;
4533;SDS011;2279;51.448;7.306;2023-01-10T09:37:01;17.30;;;5.30;;
4533;SDS011;2279;51.448;7.306;2023-01-10T09:39:27;18.10;;;4.57;;
4533;SDS011;2279;51.448;7.306;2023-01-10T09:49:47;10.02;;;5.00;;
4533;SDS011;2279;51.448;7.306;2023-01-10T09:52:23;20.07;;;5.30;;
4533;SDS011;2279;51.448;7.306;2023-01-10T09:54:51;9.90;;;5.10;;
4533;SDS011;2279;51.448;7.306;2023-01-10T09:57:19;16.30;;;5.13;;
4533;SDS011;2279;51.448;7.306;2023-01-10T09:59:46;15.60;;;5.20;;
4533;SDS011;2279;51.448;7.306;2023-01-10T10:02:21;17.67;;;4.53;;
4533;SDS011;2279;51.448;7.306;2023-01-10T10:05:07;15.67;;;5.17;;
4533;SDS011;2279;51.448;7.306;2023-01-10T10:07:34;13.33;;;5.30;;
4533;SDS011;2279;51.448;7.306;2023-01-10T10:10:00;16.33;;;5.50;;
4533;SDS011;2279;51.448;7.306;2023-01-10T10:20:02;21.60;;;5.30;;
4533;SDS011;2279;51.448;7.306;2023-01-10T10:33:44;14.27;;;4.00;;
4533;SDS011;2279;51.448;7.306;2023-01-10T10:36:01;10.30;;;4.27;;
4533;SDS011;2279;51.448;7.306;2023-01-10T10:38:29;15.23;;;4.80;;
4533;SDS011;2279;51.448;7.306;2023-01-10T10:40:57;18.60;;;4.40;;
4533;SDS011;2279;51.448;7.306;2023-01-10T10:43:25;15.97;;;4.17;;
4533;SDS011;2279;51.448;7.306;2023-01-10T10:46:01;16.90;;;3.47;;
4533;SDS011;2279;51.448;7.306;2023-01-10T10:48:33;18.57;;;5.03;;
4533;SDS011;2279;51.448;7.306;2023-01-10T10:51:04;9.93;;;4.47;;
4533;SDS011;2279;51.448;7.306;2023-01-10T10:53:31;16.47;;;4.33;;
4533;SDS011;2279;51.448;7.306;2023-01-10T10:55:58;18.33;;;4.03;;
4533;SDS011;2279;51.448;7.306;2023-01-10T10:58:24;21.80;;;4.40;;
4533;SDS011;2279;51.448;7.306;2023-01-10T11:00:54;16.80;;;4.20;;
4533;SDS011;2279;51.448;7.306;2023-01-10T11:03:41;18.63;;;4.03;;
4533;SDS011;2279;51.448;7.306;2023-01-10T11:06:09;15.27;;;3.90;;
4533;SDS011;2279;51.448;7.306;2023-01-10T11:08:35;20.63;;;4.37;;
4533;SDS011;2279;51.448;7.306;2023-01-10T11:11:05;14.77;;;3.90;;
4533;SDS011;2279;51.448;7.306;2023-01-10T11:13:42;10.60;;;3.50;;
4533;SDS011;2279;51.448;7.306;2023-01-10T11:16:21;12.70;;;4.00;;
4533;SDS011;2279;51.448;7.306;2023-01-10T11:18:47;17.73;;;4.17;;
4533;SDS011;2279;51.448;7.306;2023-01-10T11:21:32;19.50;;;3.97;;
4533;SDS011;2279;51.448;7.306;2023-01-10T11:23:58;12.67;;;4.20;;
4533;SDS011;2279;51.448;7.306;2023-01-10T11:26:58;9.50;;;4.00;;
4533;SDS011;2279;51.448;7.306;2023-01-10T11:29:28;13.67;;;5.10;;
4533;SDS011;2279;51.448;7.306;2023-01-10T11:31:57;15.87;;;4.43;;
4533;SDS011;2279;51.448;7.306;2023-01-10T11:34:33;24.87;;;3.50;;
4533;SDS011;2279;51.448;7.306;2023-01-10T11:37:01;13.03;;;3.63;;
4533;SDS011;2279;51.448;7.306;2023-01-10T11:39:28;12.33;;;4.90;;
4533;SDS011;2279;51.448;7.306;2023-01-10T11:41:54;12.60;;;4.30;;
4533;SDS011;2279;51.448;7.306;2023-01-10T11:44:24;17.00;;;4.40;;
4533;SDS011;2279;51.448;7.306;2023-01-10T11:46:57;18.67;;;4.97;;
4533;SDS011;2279;51.448;7.306;2023-01-10T11:49:34;15.63;;;4.60;;
4533;SDS011;2279;51.448;7.306;2023-01-10T11:52:02;14.37;;;4.23;;
4533;SDS011;2279;51.448;7.306;2023-01-10T11:54:29;18.60;;;4.63;;
4533;SDS011;2279;51.448;7.306;2023-01-10T11:57:03;10.33;;;3.53;;
4533;SDS011;2279;51.448;7.306;2023-01-10T11:59:31;18.20;;;3.83;;
4533;SDS011;2279;51.448;7.306;2023-01-10T12:04:40;18.43;;;4.20;;
4533;SDS011;2279;51.448;7.306;2023-01-10T12:07:07;10.63;;;3.90;;
4533;SDS011;2279;51.448;7.306;2023-01-10T12:12:04;7.33;;;3.03;;
4533;SDS011;2279;51.448;7.306;2023-01-10T12:14:30;14.80;;;4.33;;
4533;SDS011;2279;51.448;7.306;2023-01-10T12:17:00;18.70;;;3.93;;
4533;SDS011;2279;51.448;7.306;2023-01-10T12:19:27;12.73;;;4.47;;
4533;SDS011;2279;51.448;7.306;2023-01-10T12:21:54;20.67;;;4.57;;
4533;SDS011;2279;51.448;7.306;2023-01-10T12:24:21;24.63;;;4.47;;
4533;SDS011;2279;51.448;7.306;2023-01-10T12:26:49;14.87;;;3.40;;
4533;SDS011;2279;51.448;7.306;2023-01-10T12:29:18;15.83;;;3.77;;
4533;SDS011;2279;51.448;7.306;2023-01-10T12:31:46;12.70;;;3.73;;
4533;SDS011;2279;51.448;7.306;2023-01-10T12:34:18;12.67;;;3.23;;
4533;SDS011;2279;51.448;7.306;2023-01-10T12:39:32;20.20;;;4.37;;
4533;SDS011;2279;51.448;7.306;2023-01-10T12:45:04;13.60;;;3.30;;
4533;SDS011;2279;51.448;7.306;2023-01-10T12:47:52;16.73;;;2.77;;
4533;SDS011;2279;51.448;7.306;2023-01-10T12:50:24;9.70;;;3.10;;
4533;SDS011;2279;51.448;7.306;2023-01-10T12:52:59;11.67;;;3.33;;
4533;SDS011;2279;51.448;7.306;2023-01-10T12:55:35;11.20;;;3.20;;
4533;SDS011;2279;51.448;7.306;2023-01-10T12:58:04;14.27;;;3.57;;
4533;SDS011;2279;51.448;7.306;2023-01-10T13:00:41;16.10;;;3.47;;
4533;SDS011;2279;51.448;7.306;2023-01-10T13:03:15;9.23;;;3.60;;
4533;SDS011;2279;51.448;7.306;2023-01-10T13:05:43;21.70;;;3.80;;
4533;SDS011;2279;51.448;7.306;2023-01-10T13:08:12;17.37;;;4.03;;
4533;SDS011;2279;51.448;7.306;2023-01-10T13:10:40;18.07;;;3.77;;
4533;SDS011;2279;51.448;7.306;2023-01-10T13:18:25;16.57;;;3.63;;
4533;SDS011;2279;51.448;7.306;2023-01-10T13:21:07;18.50;;;2.80;;
4533;SDS011;2279;51.448;7.306;2023-01-10T13:23:59;18.97;;;3.97;;
4533;SDS011;2279;51.448;7.306;2023-01-10T13:26:24;17.10;;;2.83;;
4533;SDS011;2279;51.448;7.306;2023-01-10T13:28:57;10.00;;;2.63;;
4533;SDS011;2279;51.448;7.306;2023-01-10T13:31:31;11.80;;;3.97;;
4533;SDS011;2279;51.448;7.306;2023-01-10T13:34:07;9.63;;;3.00;;
4533;SDS011;2279;51.448;7.306;2023-01-10T13:36:36;10.17;;;3.30;;
4533;SDS011;2279;51.448;7.306;2023-01-10T13:39:03;10.80;;;3.27;;
4533;SDS011;2279;51.448;7.306;2023-01-10T13:50:51;4.90;;;2.00;;
4533;SDS011;2279;51.448;7.306;2023-01-10T13:58:44;10.73;;;2.47;;
4533;SDS011;2279;51.448;7.306;2023-01-10T14:01:21;9.33;;;2.63;;
4533;SDS011;2279;51.448;7.306;2023-01-10T14:04:14;20.70;;;3.00;;
4533;SDS011;2279;51.448;7.306;2023-01-10T14:06:42;4.97;;;2.30;;
4533;SDS011;2279;51.448;7.306;2023-01-10T14:14:20;4.90;;;2.70;;
4533;SDS011;2279;51.448;7.306;2023-01-10T14:16:57;5.57;;;2.40;;
4533;SDS011;2279;51.448;7.306;2023-01-10T14:19:25;9.13;;;2.77;;
4533;SDS011;2279;51.448;7.306;2023-01-10T14:21:52;13.10;;;2.63;;
4533;SDS011;2279;51.448;7.306;2023-01-10T14:24:40;16.33;;;3.50;;
4533;SDS011;2279;51.448;7.306;2023-01-10T14:27:05;7.37;;;2.27;;
4533;SDS011;2279;51.448;7.306;2023-01-10T14:29:32;11.53;;;3.30;;
4533;SDS011;2279;51.448;7.306;2023-01-10T14:31:59;8.47;;;2.83;;
4533;SDS011;2279;51.448;7.306;2023-01-10T14:34:29;15.47;;;3.33;;
4533;SDS011;2279;51.448;7.306;2023-01-10T14:37:00;9.57;;;2.30;;
4533;SDS011;2279;51.448;7.306;2023-01-10T14:39:26;8.87;;;2.60;;
4533;SDS011;2279;51.448;7.306;2023-01-10T14:41:57;5.07;;;2.20;;
4533;SDS011;2279;51.448;7.306;2023-01-10T14:44:39;12.80;;;2.20;;
4533;SDS011;2279;51.448;7.306;2023-01-10T14:47:24;11.27;;;3.57;;
4533;SDS011;2279;51.448;7.306;2023-01-10T14:49:51;6.30;;;2.63;;
4533;SDS011;2279;51.448;7.306;2023-01-10T14:52:20;8.97;;;2.50;;
4533;SDS011;2279;51.448;7.306;2023-01-10T14:54:52;5.73;;;2.10;;
4533;SDS011;2279;51.448;7.306;2023-01-10T14:57:20;8.10;;;2.80;;
4533;SDS011;2279;51.448;7.306;2023-01-10T14:59:47;9.60;;;2.70;;
4533;SDS011;2279;51.448;7.306;2023-01-10T15:02:18;18.37;;;2.63;;
4533;SDS011;2279;51.448;7.306;2023-01-10T15:04:52;6.60;;;2.40;;
4533;SDS011;2279;51.448;7.306;2023-01-10T15:07:19;7.03;;;2.77;;
4533;SDS011;2279;51.448;7.306;2023-01-10T15:09:48;9.50;;;2.73;;
4533;SDS011;2279;51.448;7.306;2023-01-10T15:12:14;8.93;;;2.70;;
4533;SDS011;2279;51.448;7.306;2023-01-10T15:14:41;9.13;;;2.53;;
4533;SDS011;2279;51.448;7.306;2023-01-10T15:17:10;10.30;;;2.43;;
4533;SDS011;2279;51.448;7.306;2023-01-10T15:19:40;7.20;;;2.40;;
4533;SDS011;2279;51.448;7.306;2023-01-10T15:25:06;7.83;;;2.50;;
4533;SDS011;2279;51.448;7.306;2023-01-10T15:27:44;8.43;;;3.93;;
4533;SDS011;2279;51.448;7.306;2023-01-10T15:30:10;7.13;;;2.70;;
4533;SDS011;2279;51.448;7.306;2023-01-10T15:32:37;5.93;;;2.67;;
4533;SDS011;2279;51.448;7.306;2023-01-10T15:35:04;9.87;;;2.53;;
4533;SDS011;2279;51.448;7.306;2023-01-10T15:37:32;6.93;;;2.57;;
4533;SDS011;2279;51.448;7.306;2023-01-10T15:40:01;7.43;;;3.03;;
4533;SDS011;2279;51.448;7.306;2023-01-10T15:42:27;12.10;;;3.53;;
4533;SDS011;2279;51.448;7.306;2023-01-10T15:44:55;13.67;;;3.20;;
4533;SDS011;2279;51.448;7.306;2023-01-10T15:47:40;6.50;;;2.57;;
4533;SDS011;2279;51.448;7.306;2023-01-10T15:50:24;6.87;;;2.83;;
4533;SDS011;2279;51.448;7.306;2023-01-10T15:52:53;8.43;;;2.57;;
4533;SDS011;2279;51.448;7.306;2023-01-10T15:55:41;9.60;;;2.90;;
4533;SDS011;2279;51.448;7.306;2023-01-10T16:00:48;10.03;;;2.43;;
4533;SDS011;2279;51.448;7.306;2023-01-10T16:03:27;10.80;;;3.13;;
4533;SDS011;2279;51.448;7.306;2023-01-10T16:05:54;11.17;;;3.00;;
4533;SDS011;2279;51.448;7.306;2023-01-10T16:08:23;16.47;;;2.90;;
4533;SDS011;2279;51.448;7.306;2023-01-10T16:10:51;14.97;;;2.83;;
4533;SDS011;2279;51.448;7.306;2023-01-10T16:13:17;6.40;;;2.97;;
4533;SDS011;2279;51.448;7.306;2023-01-10T16:15:52;11.30;;;2.97;;
4533;SDS011;2279;51.448;7.306;2023-01-10T16:18:19;3.43;;;2.10;;
4533;SDS011;2279;51.448;7.306;2023-01-10T16:20:45;2.20;;;2.00;;
4533;SDS011;2279;51.448;7.306;2023-01-10T16:23:16;11.50;;;3.67;;
4533;SDS011;2279;51.448;7.306;2023-01-10T16:25:43;11.35;;;2.60;;
4533;SDS011;2279;51.448;7.306;2023-01-10T16:28:11;4.87;;;2.50;;
4533;SDS011;2279;51.448;7.306;2023-01-10T16:30:38;7.40;;;3.70;;
4533;SDS011;2279;51.448;7.306;2023-01-10T16:33:18;9.40;;;3.40;;
4533;SDS011;2279;51.448;7.306;2023-01-10T16:35:48;8.80;;;3.13;;
4533;SDS011;2279;51.448;7.306;2023-01-10T16:38:14;9.73;;;2.70;;
4533;SDS011;2279;51.448;7.306;2023-01-10T16:43:13;2.27;;;2.03;;
4533;SDS011;2279;51.448;7.306;2023-01-10T16:45:45;9.67;;;3.00;;
4533;SDS011;2279;51.448;7.306;2023-01-10T16:48:12;12.65;;;3.05;;
4533;SDS011;2279;51.448;7.306;2023-01-10T16:50:39;13.18;;;3.35;;
4533;SDS011;2279;51.448;7.306;2023-01-10T16:53:05;13.38;;;3.17;;
4533;SDS011;2279;51.448;7.306;2023-01-10T16:55:44;5.07;;;2.90;;
4533;SDS011;2279;51.448;7.306;2023-01-10T16:58:10;8.67;;;2.73;;